Arion, Iowa
Current Conditions -  °F | °C
As of 2:55 PM on Thursday 18 Dec 2014 (Local Time) from KDNS Reporting Station
Overcast Overcast  
Wind Chill: 24°   Ceiling: 1600
Heat Index: 30°   Visibility: 10mi
Dew Point: 25°   Wind: 6mph
Humidity: 80%   Direction: 200°SSW
Pressure: 30.18"   Gusts: NA
Location:  41.95°N, 95.46°W
Report Text: KDNS 182055Z AUTO 20005KT 10SM BKN016 BKN022 OVC031 M01/M04 A3018 RMK AO2
Loading
Personal Weather Stations






























Interactive Weather Map New forecast layout! Learn more

10-Day Weather Forecast

Advertisements
Track Severe Weather on mobile